createdAt,value
2022-08-24T00:00:03.923Z,981.45
2022-08-24T00:01:02.912Z,981.39
2022-08-24T00:02:03.134Z,981.39
2022-08-24T00:03:03.313Z,981.51
2022-08-24T00:04:04.254Z,981.45
2022-08-24T00:05:03.101Z,981.36
2022-08-24T00:06:03.340Z,981.42
2022-08-24T00:07:03.287Z,981.51
2022-08-24T00:08:03.787Z,981.39
2022-08-24T00:09:03.432Z,981.39
2022-08-24T00:10:03.752Z,981.48
2022-08-24T00:11:03.170Z,981.34
2022-08-24T00:12:03.480Z,981.28
2022-08-24T00:13:03.248Z,981.34
2022-08-24T00:14:03.228Z,981.28
2022-08-24T00:15:03.342Z,981.40
2022-08-24T00:16:03.411Z,981.34
2022-08-24T00:17:03.623Z,981.48
2022-08-24T00:18:04.223Z,981.48
2022-08-24T00:19:03.755Z,981.46
2022-08-24T00:20:03.786Z,981.43
2022-08-24T00:21:03.762Z,981.56
2022-08-24T00:22:02.975Z,981.40
2022-08-24T00:23:03.853Z,981.46
2022-08-24T00:24:03.542Z,981.46
2022-08-24T00:25:03.083Z,981.59
2022-08-24T00:26:03.061Z,981.43
2022-08-24T00:27:03.087Z,981.37
2022-08-24T00:28:03.501Z,981.43
2022-08-24T00:29:07.875Z,981.43
2022-08-24T00:30:03.140Z,981.57
2022-08-24T00:31:05.346Z,981.37
2022-08-24T00:32:03.366Z,981.52
2022-08-24T00:33:03.215Z,981.55
2022-08-24T00:34:03.393Z,981.52
2022-08-24T00:35:03.467Z,981.46
2022-08-24T00:36:05.232Z,981.46
2022-08-24T00:37:03.486Z,981.49
2022-08-24T00:38:04.002Z,981.46
2022-08-24T00:39:03.691Z,981.49
2022-08-24T00:40:03.880Z,981.46
2022-08-24T00:41:03.693Z,981.52
2022-08-24T00:42:03.820Z,981.57
2022-08-24T00:43:03.903Z,981.38
2022-08-24T00:44:03.956Z,981.43
2022-08-24T00:45:02.938Z,981.49
2022-08-24T00:46:03.144Z,981.55
2022-08-24T00:47:03.087Z,981.55
2022-08-24T00:48:03.422Z,981.46
2022-08-24T00:49:03.170Z,981.46
2022-08-24T00:50:03.326Z,981.46
2022-08-24T00:51:03.377Z,981.49
2022-08-24T00:52:04.003Z,981.41
2022-08-24T00:53:03.348Z,981.47
2022-08-24T00:54:03.449Z,981.47
2022-08-24T00:55:03.525Z,981.57
2022-08-24T00:56:03.543Z,981.53
2022-08-24T00:57:03.561Z,981.55
2022-08-24T00:58:03.990Z,981.50
2022-08-24T00:59:03.791Z,981.63
2022-08-24T01:00:03.792Z,981.53
2022-08-24T01:01:04.094Z,981.56
2022-08-24T01:02:16.112Z,981.63
2022-08-24T01:03:02.967Z,981.63
2022-08-24T01:04:03.132Z,981.66
2022-08-24T01:05:03.109Z,981.53
2022-08-24T01:06:03.231Z,981.53
2022-08-24T01:07:03.266Z,981.61
2022-08-24T01:08:03.656Z,981.56
2022-08-24T01:09:03.486Z,981.61
2022-08-24T01:10:03.534Z,981.58
2022-08-24T01:11:03.566Z,981.73
2022-08-24T01:12:03.565Z,981.64
2022-08-24T01:13:03.751Z,981.56
2022-08-24T01:14:03.760Z,981.58
2022-08-24T01:15:03.818Z,981.70
2022-08-24T01:16:03.988Z,981.64
2022-08-24T01:17:03.839Z,981.64
2022-08-24T01:18:03.333Z,981.64
2022-08-24T01:19:02.927Z,981.70
2022-08-24T01:20:02.960Z,981.61
2022-08-24T01:21:02.967Z,981.70
2022-08-24T01:22:03.049Z,981.64
2022-08-24T01:23:03.208Z,981.70
2022-08-24T01:24:03.215Z,981.64
2022-08-24T01:25:03.196Z,981.56
2022-08-24T01:26:03.462Z,981.76
2022-08-24T01:27:03.428Z,981.51
2022-08-24T01:28:07.033Z,981.56
2022-08-24T01:29:05.120Z,981.67
2022-08-24T01:30:03.516Z,981.64
2022-08-24T01:31:04.056Z,981.56
2022-08-24T01:32:03.949Z,981.56
2022-08-24T01:33:03.842Z,981.56
2022-08-24T01:34:05.538Z,981.56
2022-08-24T01:35:03.000Z,981.59
2022-08-24T01:36:02.992Z,981.54
2022-08-24T01:37:03.037Z,981.48
2022-08-24T01:38:03.649Z,981.56
2022-08-24T01:39:03.273Z,981.43
2022-08-24T01:40:03.382Z,981.46
2022-08-24T01:41:03.331Z,981.49
2022-08-24T01:42:03.280Z,981.43
2022-08-24T01:43:03.268Z,981.43
2022-08-24T01:44:03.381Z,981.54
2022-08-24T01:45:03.506Z,981.56
2022-08-24T01:46:03.626Z,981.65
2022-08-24T01:47:07.430Z,981.54
2022-08-24T01:48:04.240Z,981.62
2022-08-24T01:49:02.885Z,981.65
2022-08-24T01:50:03.116Z,981.62
2022-08-24T01:51:03.074Z,981.62
2022-08-24T01:52:03.100Z,981.62
2022-08-24T01:53:05.998Z,981.62
2022-08-24T01:54:03.178Z,981.62
2022-08-24T01:55:03.280Z,981.68
2022-08-24T01:56:03.440Z,981.62
2022-08-24T01:57:03.546Z,981.55
2022-08-24T01:58:03.332Z,981.57
2022-08-24T01:59:03.383Z,981.52
2022-08-24T02:00:03.446Z,981.60
2022-08-24T02:01:03.447Z,981.60
2022-08-24T02:02:03.729Z,981.57
2022-08-24T02:03:04.332Z,981.60
2022-08-24T02:04:03.707Z,981.68
2022-08-24T02:05:03.706Z,981.57
2022-08-24T02:06:03.763Z,981.74
2022-08-24T02:07:04.645Z,981.66
2022-08-24T02:08:03.682Z,981.66
2022-08-24T02:09:03.820Z,981.55
2022-08-24T02:10:03.899Z,981.52
2022-08-24T02:11:03.917Z,981.66
2022-08-24T02:12:02.966Z,981.57
2022-08-24T02:13:03.344Z,981.63
2022-08-24T02:14:05.901Z,981.60
2022-08-24T02:15:03.011Z,981.52
2022-08-24T02:16:03.185Z,981.63
2022-08-24T02:17:03.309Z,981.63
2022-08-24T02:18:03.261Z,981.69
2022-08-24T02:19:03.300Z,981.60
2022-08-24T02:20:03.353Z,981.72
2022-08-24T02:21:03.416Z,981.60
2022-08-24T02:22:03.403Z,981.72
2022-08-24T02:23:03.830Z,981.63
2022-08-24T02:24:03.487Z,981.60
2022-08-24T02:25:03.548Z,981.66
2022-08-24T02:26:03.492Z,981.66
2022-08-24T02:27:03.561Z,981.63
2022-08-24T02:28:03.615Z,981.72
2022-08-24T02:29:04.257Z,981.63
2022-08-24T02:30:03.678Z,981.66
2022-08-24T02:31:03.798Z,981.63
2022-08-24T02:32:03.844Z,981.72
2022-08-24T02:33:04.114Z,981.50
2022-08-24T02:34:02.972Z,981.56
2022-08-24T02:35:03.073Z,981.56
2022-08-24T02:36:04.377Z,981.56
2022-08-24T02:37:03.068Z,981.60
2022-08-24T02:38:03.109Z,981.58
2022-08-24T02:39:03.083Z,981.63
2022-08-24T02:40:03.337Z,981.58
2022-08-24T02:41:03.191Z,981.66
2022-08-24T02:42:03.265Z,981.61
2022-08-24T02:43:03.597Z,981.53
2022-08-24T02:44:03.331Z,981.50
2022-08-24T02:45:03.380Z,981.47
2022-08-24T02:46:04.260Z,981.47
2022-08-24T02:47:03.457Z,981.42
2022-08-24T02:48:03.517Z,981.50
2022-08-24T02:49:12.188Z,981.50
2022-08-24T02:50:03.437Z,981.53
2022-08-24T02:51:03.535Z,981.53
2022-08-24T02:52:03.543Z,981.58
2022-08-24T02:53:03.894Z,981.44
2022-08-24T02:54:03.597Z,981.64
2022-08-24T02:55:03.626Z,981.53
2022-08-24T02:56:03.678Z,981.58
2022-08-24T02:57:03.738Z,981.61
2022-08-24T02:58:03.701Z,981.56
2022-08-24T02:59:03.657Z,981.64
2022-08-24T03:00:09.996Z,981.56
2022-08-24T03:01:17.915Z,981.50
2022-08-24T03:02:03.860Z,981.45
2022-08-24T03:03:04.467Z,981.53
2022-08-24T03:04:03.861Z,981.58
2022-08-24T03:05:03.839Z,981.64
2022-08-24T03:06:02.935Z,981.56
2022-08-24T03:07:02.982Z,981.58
2022-08-24T03:08:04.065Z,981.51
2022-08-24T03:09:03.013Z,981.58
2022-08-24T03:10:03.000Z,981.61
2022-08-24T03:11:03.065Z,981.45
2022-08-24T03:12:03.108Z,981.58
2022-08-24T03:13:03.776Z,981.61
2022-08-24T03:14:03.318Z,981.51
2022-08-24T03:15:03.333Z,981.64
2022-08-24T03:16:03.443Z,981.51
2022-08-24T03:17:03.528Z,981.59
2022-08-24T03:18:03.495Z,981.59
2022-08-24T03:19:03.577Z,981.51
2022-08-24T03:20:03.489Z,981.48
2022-08-24T03:21:03.763Z,981.62
2022-08-24T03:22:03.779Z,981.48
2022-08-24T03:23:04.386Z,981.51
2022-08-24T03:24:03.245Z,981.45
2022-08-24T03:25:04.206Z,981.54
2022-08-24T03:26:03.013Z,981.62
2022-08-24T03:27:03.337Z,981.54
2022-08-24T03:28:11.117Z,981.43
2022-08-24T03:29:03.441Z,981.43
2022-08-24T03:30:03.370Z,981.62
2022-08-24T03:31:03.548Z,981.49
2022-08-24T03:32:03.409Z,981.59
2022-08-24T03:33:03.884Z,981.49
2022-08-24T03:34:03.743Z,981.55
2022-08-24T03:35:03.569Z,981.65
2022-08-24T03:36:03.616Z,981.57
2022-08-24T03:37:03.531Z,981.68
2022-08-24T03:38:03.701Z,981.52
2022-08-24T03:39:03.686Z,981.65
2022-08-24T03:40:05.882Z,981.65
2022-08-24T03:41:03.800Z,981.52
2022-08-24T03:42:03.006Z,981.52
2022-08-24T03:43:03.348Z,981.49
2022-08-24T03:44:02.964Z,981.57
2022-08-24T03:45:03.055Z,981.55
2022-08-24T03:46:03.178Z,981.57
2022-08-24T03:47:03.097Z,981.49
2022-08-24T03:48:03.122Z,981.66
2022-08-24T03:49:03.132Z,981.60
2022-08-24T03:50:03.327Z,981.69
2022-08-24T03:51:03.437Z,981.71
2022-08-24T03:52:03.561Z,981.57
2022-08-24T03:53:03.982Z,981.50
2022-08-24T03:54:03.644Z,981.57
2022-08-24T03:55:03.783Z,981.60
2022-08-24T03:56:07.700Z,981.77
2022-08-24T03:57:03.881Z,981.71
2022-08-24T03:58:03.715Z,981.57
2022-08-24T03:59:03.788Z,981.57
2022-08-24T04:00:03.824Z,981.71
2022-08-24T04:01:04.164Z,981.60
2022-08-24T04:02:03.061Z,981.77
2022-08-24T04:03:03.510Z,981.63
2022-08-24T04:04:03.144Z,981.69
2022-08-24T04:05:03.100Z,981.63
2022-08-24T04:06:03.752Z,981.66
2022-08-24T04:07:04.915Z,981.66
2022-08-24T04:08:03.301Z,981.71
2022-08-24T04:09:03.323Z,981.55
2022-08-24T04:10:03.323Z,981.77
2022-08-24T04:11:03.413Z,981.83
2022-08-24T04:12:03.470Z,981.83
2022-08-24T04:13:03.944Z,981.77
2022-08-24T04:14:03.583Z,981.89
2022-08-24T04:15:03.606Z,981.71
2022-08-24T04:16:02.998Z,981.89
2022-08-24T04:17:03.241Z,981.83
2022-08-24T04:18:03.058Z,981.80
2022-08-24T04:19:03.180Z,981.80
2022-08-24T04:20:03.157Z,981.72
2022-08-24T04:21:03.288Z,981.72
2022-08-24T04:22:03.383Z,981.77
2022-08-24T04:23:03.827Z,981.80
2022-08-24T04:24:03.522Z,981.89
2022-08-24T04:25:10.024Z,981.92
2022-08-24T04:26:03.907Z,981.77
2022-08-24T04:27:03.008Z,981.86
2022-08-24T04:28:02.993Z,981.77
2022-08-24T04:29:08.504Z,981.80
2022-08-24T04:30:03.106Z,981.92
2022-08-24T04:31:03.304Z,981.83
2022-08-24T04:32:05.014Z,981.80
2022-08-24T04:33:03.812Z,981.95
2022-08-24T04:34:03.453Z,981.80
2022-08-24T04:35:04.561Z,981.89
2022-08-24T04:40:19.872Z,981.86
2022-08-24T04:41:04.789Z,981.80
2022-08-24T04:42:04.059Z,981.89
2022-08-24T04:43:04.814Z,981.92
2022-08-24T04:44:03.004Z,981.97
2022-08-24T04:45:02.974Z,981.83
2022-08-24T04:46:03.353Z,982.00
2022-08-24T04:47:03.343Z,981.89
2022-08-24T04:48:03.490Z,982.00
2022-08-24T04:49:03.578Z,981.83
2022-08-24T04:50:03.606Z,982.00
2022-08-24T04:51:03.453Z,981.94
2022-08-24T04:52:03.552Z,981.91
2022-08-24T04:53:04.549Z,981.89
2022-08-24T04:54:03.780Z,982.03
2022-08-24T04:55:03.830Z,981.91
2022-08-24T04:56:03.879Z,982.11
2022-08-24T04:57:04.978Z,982.05
2022-08-24T04:58:05.712Z,981.94
2022-08-24T04:59:03.246Z,981.96
2022-08-24T05:02:06.145Z,982.04
2022-08-24T05:02:19.488Z,982.16
2022-08-24T05:03:21.552Z,982.12
2022-08-24T05:04:03.788Z,981.97
2022-08-24T05:05:03.823Z,982.11
2022-08-24T05:06:03.916Z,982.04
2022-08-24T05:07:02.965Z,982.10
2022-08-24T05:08:03.526Z,982.26
2022-08-24T05:09:05.455Z,982.23
2022-08-24T05:10:08.872Z,982.11
2022-08-24T05:11:03.186Z,982.25
2022-08-24T05:12:03.869Z,982.21
2022-08-24T05:13:04.277Z,982.24
2022-08-24T05:14:02.922Z,982.23
2022-08-24T05:15:02.984Z,982.28
2022-08-24T05:16:03.137Z,982.25
2022-08-24T05:17:03.342Z,982.39
2022-08-24T05:18:03.015Z,982.38
2022-08-24T05:19:03.148Z,982.38
2022-08-24T05:20:03.182Z,982.35
2022-08-24T05:21:03.259Z,982.49
2022-08-24T05:22:03.229Z,982.39
2022-08-24T05:23:05.111Z,982.53
2022-08-24T05:24:03.388Z,982.47
2022-08-24T05:25:03.604Z,982.41
2022-08-24T05:26:03.600Z,982.52
2022-08-24T05:27:03.602Z,982.60
2022-08-24T05:28:03.716Z,982.82
2022-08-24T05:29:03.895Z,982.56
2022-08-24T05:30:03.969Z,982.78
2022-08-24T05:31:03.094Z,982.64
2022-08-24T05:32:04.972Z,982.75
2022-08-24T05:33:03.575Z,982.69
2022-08-24T05:34:07.134Z,982.79
2022-08-24T05:35:03.351Z,982.88
2022-08-24T05:36:03.371Z,982.93
2022-08-24T05:37:03.319Z,982.87
2022-08-24T05:38:03.464Z,983.04
2022-08-24T05:39:08.105Z,983.03
2022-08-24T05:40:03.652Z,983.21
2022-08-24T05:41:03.668Z,983.11
2022-08-24T05:42:03.644Z,983.28
2022-08-24T05:43:03.921Z,983.16
2022-08-24T05:44:06.915Z,983.13
2022-08-24T05:45:03.628Z,983.22
2022-08-24T05:46:03.777Z,983.27
2022-08-24T05:47:03.217Z,983.27
2022-08-24T05:48:02.990Z,983.32
2022-08-24T05:49:03.153Z,983.48
2022-08-24T05:50:03.213Z,983.31
2022-08-24T05:51:03.271Z,983.50
2022-08-24T05:52:03.477Z,983.53
2022-08-24T05:53:03.763Z,983.55
2022-08-24T05:54:03.417Z,983.61
2022-08-24T05:55:03.477Z,983.58
2022-08-24T05:56:03.595Z,983.69
2022-08-24T05:57:03.638Z,983.69
2022-08-24T05:58:03.671Z,983.68
2022-08-24T05:59:03.808Z,983.77
2022-08-24T06:00:03.793Z,983.82
2022-08-24T06:01:03.855Z,983.76
2022-08-24T06:02:03.930Z,983.91
2022-08-24T06:03:04.476Z,983.96
2022-08-24T06:04:03.951Z,983.84
2022-08-24T06:05:03.874Z,983.90
2022-08-24T06:06:03.887Z,983.87
2022-08-24T06:07:03.945Z,983.90
2022-08-24T06:08:02.925Z,984.07
2022-08-24T06:09:03.096Z,983.95
2022-08-24T06:10:36.184Z,983.98
2022-08-24T06:11:04.913Z,983.95
2022-08-24T06:12:03.347Z,984.09
2022-08-24T06:13:03.712Z,984.09
2022-08-24T06:14:07.938Z,984.09
2022-08-24T06:15:03.448Z,984.11
2022-08-24T06:16:21.895Z,984.05
2022-08-24T06:17:03.226Z,984.14
2022-08-24T06:18:03.211Z,984.11
2022-08-24T06:19:03.189Z,984.16
2022-08-24T06:20:03.301Z,984.19
2022-08-24T06:21:03.327Z,984.22
2022-08-24T06:22:03.456Z,984.07
2022-08-24T06:23:03.901Z,984.24
2022-08-24T06:24:03.712Z,984.15
2022-08-24T06:25:03.861Z,984.15
2022-08-24T06:26:03.894Z,984.30
2022-08-24T06:27:03.776Z,984.32
2022-08-24T06:28:03.870Z,984.35
2022-08-24T06:29:03.830Z,984.35
2022-08-24T06:30:02.945Z,984.23
2022-08-24T06:31:03.094Z,984.26
2022-08-24T06:32:03.279Z,984.32
2022-08-24T06:33:03.521Z,984.20
2022-08-24T06:34:03.217Z,984.34
2022-08-24T06:35:03.199Z,984.25
2022-08-24T06:36:03.630Z,984.25
2022-08-24T06:37:03.213Z,984.42
2022-08-24T06:38:03.243Z,984.28
2022-08-24T06:39:03.406Z,984.42
2022-08-24T06:40:03.597Z,984.36
2022-08-24T06:41:03.563Z,984.30
2022-08-24T06:42:03.668Z,984.42
2022-08-24T06:43:04.074Z,984.44
2022-08-24T06:44:03.791Z,984.47
2022-08-24T06:45:03.811Z,984.27
2022-08-24T06:46:03.977Z,984.27
2022-08-24T06:47:03.067Z,984.35
2022-08-24T06:48:03.112Z,984.38
2022-08-24T06:49:03.060Z,984.41
2022-08-24T06:50:03.147Z,984.50
2022-08-24T06:51:03.105Z,984.47
2022-08-24T06:52:03.111Z,984.49
2022-08-24T06:53:03.562Z,984.43
2022-08-24T06:54:03.357Z,984.37
2022-08-24T06:55:03.739Z,984.52
2022-08-24T06:56:03.493Z,984.43
2022-08-24T06:57:03.578Z,984.52
2022-08-24T06:58:03.557Z,984.37
2022-08-24T06:59:03.696Z,984.54
2022-08-24T07:00:03.695Z,984.39
2022-08-24T07:01:03.705Z,984.60
2022-08-24T07:02:04.098Z,984.39
2022-08-24T07:03:04.202Z,984.48
2022-08-24T07:04:03.910Z,984.39
2022-08-24T07:05:03.809Z,984.36
2022-08-24T07:06:03.829Z,984.48
2022-08-24T07:07:03.886Z,984.65
2022-08-24T07:08:02.997Z,984.54
2022-08-24T07:09:02.992Z,984.54
2022-08-24T07:10:03.101Z,984.51
2022-08-24T07:11:03.141Z,984.57
2022-08-24T07:12:03.224Z,984.45
2022-08-24T07:13:03.496Z,984.48
2022-08-24T07:14:03.246Z,984.45
2022-08-24T07:15:11.515Z,984.56
2022-08-24T07:16:03.524Z,984.53
2022-08-24T07:17:03.334Z,984.47
2022-08-24T07:18:03.435Z,984.50
2022-08-24T07:19:03.453Z,984.53
2022-08-24T07:20:03.603Z,984.59
2022-08-24T07:21:04.195Z,984.56
2022-08-24T07:22:03.711Z,984.59
2022-08-24T07:23:04.278Z,984.50
2022-08-24T07:24:03.079Z,984.56
2022-08-24T07:25:03.089Z,984.47
2022-08-24T07:26:06.772Z,984.47
2022-08-24T07:27:03.165Z,984.56
2022-08-24T07:28:10.079Z,984.44
2022-08-24T07:29:03.337Z,984.47
2022-08-24T07:30:27.763Z,984.56
2022-08-24T07:31:03.431Z,984.62
2022-08-24T07:32:03.552Z,984.50
2022-08-24T07:33:03.547Z,984.56
2022-08-24T07:34:03.591Z,984.41
2022-08-24T07:35:03.673Z,984.53
2022-08-24T07:36:04.872Z,984.53
2022-08-24T07:37:03.291Z,984.56
2022-08-24T07:38:03.841Z,984.44
2022-08-24T07:39:03.531Z,984.56
2022-08-24T07:40:03.712Z,984.64
2022-08-24T07:41:46.796Z,984.44
2022-08-24T07:42:17.323Z,984.50
2022-08-24T07:43:04.425Z,984.64
2022-08-24T07:44:03.785Z,984.64
2022-08-24T07:45:02.932Z,984.58
2022-08-24T07:46:03.119Z,984.55
2022-08-24T07:47:37.362Z,984.58
2022-08-24T07:49:31.263Z,984.61
2022-08-24T07:50:03.601Z,984.64
2022-08-24T07:51:04.494Z,984.61
2022-08-24T07:52:03.858Z,984.61
2022-08-24T07:53:03.324Z,984.64
2022-08-24T07:54:07.058Z,984.66
2022-08-24T07:55:03.096Z,984.61
2022-08-24T07:56:03.152Z,984.52
2022-08-24T07:57:03.132Z,984.60
2022-08-24T07:58:03.295Z,984.51
2022-08-24T07:59:03.339Z,984.66
2022-08-24T08:00:05.435Z,984.63
2022-08-24T08:01:03.471Z,984.72
2022-08-24T08:02:03.340Z,984.60
2022-08-24T08:03:04.144Z,984.66
2022-08-24T08:04:03.353Z,984.63
2022-08-24T08:05:04.462Z,984.54
2022-08-24T08:06:03.475Z,984.57
2022-08-24T08:07:03.530Z,984.54
2022-08-24T08:08:04.016Z,984.57
2022-08-24T08:09:03.660Z,984.57
2022-08-24T08:10:03.749Z,984.68
2022-08-24T08:11:03.709Z,984.57
2022-08-24T08:12:03.648Z,984.54
2022-08-24T08:13:03.682Z,984.48
2022-08-24T08:14:03.777Z,984.51
2022-08-24T08:15:03.744Z,984.42
2022-08-24T08:16:08.824Z,984.39
2022-08-24T08:17:03.147Z,984.45
2022-08-24T08:18:03.446Z,984.30
2022-08-24T08:19:11.457Z,984.36
2022-08-24T08:20:03.144Z,984.45
2022-08-24T08:21:03.335Z,984.27
2022-08-24T08:22:03.440Z,984.42
2022-08-24T08:23:03.385Z,984.42
2022-08-24T08:24:03.529Z,984.48
2022-08-24T08:25:03.566Z,984.48
2022-08-24T08:26:04.533Z,984.36
2022-08-24T08:27:03.678Z,984.48
2022-08-24T08:28:25.589Z,984.33
2022-08-24T08:29:03.747Z,984.45
2022-08-24T08:30:03.781Z,984.54
2022-08-24T08:31:04.437Z,984.39
2022-08-24T08:32:03.786Z,984.36
2022-08-24T08:33:04.146Z,984.33
2022-08-24T08:34:03.980Z,984.39
2022-08-24T08:35:03.006Z,984.21
2022-08-24T08:36:03.031Z,984.39
2022-08-24T08:37:02.907Z,984.41
2022-08-24T08:38:03.592Z,984.41
2022-08-24T08:39:02.942Z,984.21
2022-08-24T08:40:03.171Z,984.18
2022-08-24T08:41:03.114Z,984.26
2022-08-24T08:42:05.496Z,984.26
2022-08-24T08:43:03.315Z,984.20
2022-08-24T08:44:03.417Z,984.35
2022-08-24T08:45:05.135Z,984.41
2022-08-24T08:46:03.626Z,984.38
2022-08-24T08:47:03.522Z,984.35
2022-08-24T08:49:03.677Z,984.28
2022-08-24T08:50:03.718Z,984.28
2022-08-24T08:51:03.896Z,984.25
2022-08-24T08:52:03.875Z,984.28
2022-08-24T08:53:04.262Z,984.28
2022-08-24T08:54:02.896Z,984.40
2022-08-24T08:55:03.135Z,984.34
2022-08-24T08:56:03.128Z,984.37
2022-08-24T08:57:03.665Z,984.34
2022-08-24T08:58:04.662Z,984.40
2022-08-24T08:59:04.575Z,984.32
2022-08-24T09:00:03.746Z,984.23
2022-08-24T09:01:05.584Z,984.35
2022-08-24T09:02:03.639Z,984.35
2022-08-24T09:03:04.170Z,984.35
2022-08-24T09:04:03.964Z,984.32
2022-08-24T09:05:02.916Z,984.35
2022-08-24T09:06:03.151Z,984.35
2022-08-24T09:07:03.261Z,984.35
2022-08-24T09:08:03.470Z,984.38
2022-08-24T09:09:03.285Z,984.29
2022-08-24T09:10:03.395Z,984.38
2022-08-24T09:11:03.330Z,984.47
2022-08-24T09:12:03.497Z,984.17
2022-08-24T09:13:03.444Z,984.53
2022-08-24T09:14:03.441Z,984.32
2022-08-24T09:15:03.437Z,984.32
2022-08-24T09:16:10.591Z,984.35
2022-08-24T09:17:03.816Z,984.32
2022-08-24T09:18:04.140Z,984.29
2022-08-24T09:19:03.724Z,984.32
2022-08-24T09:20:04.104Z,984.24
2022-08-24T09:21:03.004Z,984.29
2022-08-24T09:22:02.985Z,984.41
2022-08-24T09:23:02.938Z,984.30
2022-08-24T09:24:02.959Z,984.15
2022-08-24T09:25:03.093Z,984.24
2022-08-24T09:26:03.276Z,984.18
2022-08-24T09:27:03.705Z,984.21
2022-08-24T09:28:05.430Z,984.15
2022-08-24T09:29:03.897Z,984.15
2022-08-24T09:30:03.714Z,984.09
2022-08-24T09:31:04.070Z,984.32
2022-08-24T09:32:03.852Z,984.15
2022-08-24T09:33:03.769Z,984.12
2022-08-24T09:34:05.136Z,984.12
2022-08-24T09:35:03.070Z,984.24
2022-08-24T09:36:03.135Z,984.12
2022-08-24T09:37:03.169Z,984.18
2022-08-24T09:38:03.167Z,984.09
2022-08-24T09:39:03.396Z,984.12
2022-08-24T09:40:03.559Z,984.15
2022-08-24T09:41:03.347Z,984.18
2022-08-24T09:42:03.544Z,984.12
2022-08-24T09:43:03.990Z,984.15
2022-08-24T09:44:04.028Z,984.15
2022-08-24T09:45:03.831Z,984.15
2022-08-24T09:46:03.981Z,984.23
2022-08-24T09:47:02.936Z,984.12
2022-08-24T09:48:03.071Z,984.20
2022-08-24T09:49:03.001Z,984.06
2022-08-24T09:50:04.704Z,984.17
2022-08-24T09:51:03.178Z,984.20
2022-08-24T09:52:03.112Z,984.20
2022-08-24T09:53:03.551Z,984.26
2022-08-24T09:54:03.162Z,984.26
2022-08-24T09:55:03.232Z,984.18
2022-08-24T09:56:03.404Z,984.12
2022-08-24T09:57:13.744Z,984.24
2022-08-24T09:58:03.444Z,984.18
2022-08-24T09:59:03.598Z,984.18
2022-08-24T10:00:03.612Z,984.18
2022-08-24T10:01:03.879Z,984.03
2022-08-24T10:02:03.846Z,984.14
2022-08-24T10:03:03.815Z,984.29
2022-08-24T10:04:03.847Z,984.06
2022-08-24T10:05:04.081Z,984.23
2022-08-24T10:06:04.031Z,984.23
2022-08-24T10:07:02.913Z,984.23
2022-08-24T10:08:03.180Z,984.08
2022-08-24T10:09:03.150Z,984.08
2022-08-24T10:10:03.059Z,984.17
2022-08-24T10:11:03.118Z,984.02
2022-08-24T10:12:03.228Z,984.08
2022-08-24T10:13:05.356Z,984.08
2022-08-24T10:14:03.274Z,984.14
2022-08-24T10:15:03.286Z,984.11
2022-08-24T10:16:03.379Z,984.14
2022-08-24T10:17:03.366Z,984.08
2022-08-24T10:18:03.701Z,984.17
2022-08-24T10:19:04.615Z,984.11
2022-08-24T10:20:03.426Z,984.28
2022-08-24T10:21:03.396Z,984.08
2022-08-24T10:22:03.409Z,984.11
2022-08-24T10:23:03.567Z,984.08
2022-08-24T10:24:03.583Z,984.05
2022-08-24T10:25:03.480Z,983.99
2022-08-24T10:26:03.517Z,984.08
2022-08-24T10:27:03.598Z,983.90
2022-08-24T10:28:04.168Z,983.98
2022-08-24T10:29:03.791Z,984.07
2022-08-24T10:30:03.848Z,984.01
2022-08-24T10:31:03.924Z,983.89
2022-08-24T10:32:03.085Z,983.95
2022-08-24T10:33:02.999Z,983.86
2022-08-24T10:34:03.074Z,983.92
2022-08-24T10:35:03.244Z,983.95
2022-08-24T10:36:03.396Z,984.01
2022-08-24T10:37:03.357Z,984.01
2022-08-24T10:38:06.671Z,983.98
2022-08-24T10:39:03.838Z,983.98
2022-08-24T10:40:09.824Z,984.00
2022-08-24T10:41:06.044Z,983.86
2022-08-24T10:42:03.023Z,983.91
2022-08-24T10:43:02.971Z,983.97
2022-08-24T10:44:02.994Z,983.88
2022-08-24T10:45:03.091Z,983.97
2022-08-24T10:46:03.332Z,984.06
2022-08-24T10:47:03.124Z,984.00
2022-08-24T10:48:03.590Z,983.86
2022-08-24T10:49:04.456Z,984.00
2022-08-24T10:50:03.324Z,984.00
2022-08-24T10:51:03.426Z,984.00
2022-08-24T10:52:03.548Z,983.97
2022-08-24T10:53:03.537Z,983.94
2022-08-24T10:54:03.609Z,983.94
2022-08-24T10:55:03.599Z,984.00
2022-08-24T10:56:04.561Z,984.06
2022-08-24T10:57:03.659Z,983.95
2022-08-24T10:58:04.861Z,984.10
2022-08-24T10:59:03.796Z,984.18
2022-08-24T11:00:04.642Z,984.10
2022-08-24T11:01:03.069Z,983.95
2022-08-24T11:02:13.281Z,984.04
2022-08-24T11:03:03.032Z,984.04
2022-08-24T11:04:02.966Z,984.04
2022-08-24T11:05:03.025Z,984.03
2022-08-24T11:06:03.118Z,983.97
2022-08-24T11:07:03.158Z,983.97
2022-08-24T11:08:04.713Z,983.97
2022-08-24T11:09:03.280Z,983.97
2022-08-24T11:10:03.480Z,984.00
2022-08-24T11:11:03.620Z,983.97
2022-08-24T11:12:03.748Z,984.00
2022-08-24T11:13:03.943Z,984.12
2022-08-24T11:14:03.858Z,983.97
2022-08-24T11:15:03.062Z,984.00
2022-08-24T11:16:03.093Z,984.11
2022-08-24T11:17:03.167Z,984.08
2022-08-24T11:18:03.784Z,984.14
2022-08-24T11:19:03.292Z,984.11
2022-08-24T11:20:03.378Z,984.02
2022-08-24T11:21:03.521Z,984.02
2022-08-24T11:22:03.584Z,984.14
2022-08-24T11:23:03.611Z,984.08
2022-08-24T11:24:03.767Z,984.02
2022-08-24T11:25:03.812Z,984.08
2022-08-24T11:26:02.912Z,984.16
2022-08-24T11:27:03.115Z,983.93
2022-08-24T11:28:03.604Z,983.99
2022-08-24T11:29:02.999Z,983.96
2022-08-24T11:30:03.052Z,984.07
2022-08-24T11:31:03.330Z,983.98
2022-08-24T11:32:03.468Z,984.01
2022-08-24T11:33:03.417Z,984.04
2022-08-24T11:34:03.453Z,984.01
2022-08-24T11:35:03.468Z,984.19
2022-08-24T11:36:03.465Z,984.04
2022-08-24T11:37:03.572Z,984.16
2022-08-24T11:38:03.728Z,984.19
2022-08-24T11:39:03.382Z,984.07
2022-08-24T11:40:03.775Z,984.01
2022-08-24T11:41:07.634Z,984.07
2022-08-24T11:42:03.628Z,984.10
2022-08-24T11:43:06.310Z,984.01
2022-08-24T11:44:03.952Z,984.07
2022-08-24T11:45:02.981Z,984.10
2022-08-24T11:46:04.549Z,984.16
2022-08-24T11:47:03.216Z,984.10
2022-08-24T11:48:05.743Z,984.01
2022-08-24T11:49:03.303Z,984.04
2022-08-24T11:50:03.486Z,984.13
2022-08-24T11:51:03.568Z,984.10
2022-08-24T11:52:03.654Z,984.04
2022-08-24T11:53:12.908Z,983.89
2022-08-24T11:54:03.691Z,984.06
2022-08-24T11:55:05.755Z,983.89
2022-08-24T11:56:05.615Z,984.18
2022-08-24T11:57:08.828Z,984.03
2022-08-24T11:58:04.145Z,984.06
2022-08-24T11:59:03.816Z,984.09
2022-08-24T12:00:03.822Z,984.03
2022-08-24T12:01:02.974Z,984.05
2022-08-24T12:02:03.290Z,984.20
2022-08-24T12:03:03.521Z,984.05
2022-08-24T12:04:03.196Z,983.96
2022-08-24T12:05:03.180Z,984.02
2022-08-24T12:06:03.323Z,984.02
2022-08-24T12:07:03.397Z,984.02
2022-08-24T12:08:03.808Z,984.02
2022-08-24T12:09:06.638Z,983.99
2022-08-24T12:10:03.545Z,984.05
2022-08-24T12:11:03.572Z,983.84
2022-08-24T12:12:03.718Z,984.02
2022-08-24T12:13:03.825Z,983.90
2022-08-24T12:14:03.812Z,984.02
2022-08-24T12:15:03.973Z,984.02
2022-08-24T12:16:04.059Z,983.96
2022-08-24T12:17:02.982Z,984.05
2022-08-24T12:18:03.561Z,984.11
2022-08-24T12:19:03.077Z,983.99
2022-08-24T12:20:03.193Z,984.08
2022-08-24T12:21:03.195Z,984.08
2022-08-24T12:22:03.233Z,984.05
2022-08-24T12:23:07.645Z,984.11
2022-08-24T12:24:04.392Z,983.94
2022-08-24T12:25:03.295Z,984.00
2022-08-24T12:26:03.488Z,983.91
2022-08-24T12:27:07.198Z,984.00
2022-08-24T12:28:03.839Z,983.92
2022-08-24T12:29:03.508Z,983.89
2022-08-24T12:30:06.480Z,983.95
2022-08-24T12:31:04.871Z,983.95
2022-08-24T12:32:03.622Z,983.95
2022-08-24T12:33:04.043Z,983.95
2022-08-24T12:34:09.911Z,983.92
2022-08-24T12:35:03.871Z,983.83